메인 페이지
METAR-TAF:

METAR-TAF

공항 :

트리니다드, 볼리비아

위도: 14-49S, 경도: 064-55W, 고도: 155m

현재 날씨관측

예보는 6 시간 56분 전, 23:00시(UTC)에 발표되었습니다.
여러 방향의 바람 2kt
온도 25°C
습도 57%
기압 1018 hPa
시정: 5000m
연기,

METAR: SLTR 172300Z VRB02KT 5000 FU NSC 25/16 Q1018

시각: 01:56 (05:56 UTC)

예보

예보는 1 시간 56분 전, 04:00시(UTC)에 발표되었습니다.
예보 대상 시간: 18일 06시부터 19일 06시까지 (UTC)
kt
시정: 8000m
전환 중
18일 12시부터 18일 15시까지 (UTC)
북북서10kt
전환 중
19일 00시부터 19일 02시까지 (UTC)
kt

TAF: SLTR 180400Z 1806/1906 00000KT 8000 NSC TX33/1819Z TN15/1811Z BECMG 1812/1815 33010KT BECMG 1900/1902 00000KT

4,000개 이상의 공항 관측 자료 및 예보 (METAR 및 TAF 보고).

지도상에서 검색 가능한 기상관측소가 노란 점과 빨간 점으로 표시되어 있습니다.

기상관측소 명을 보려면 표시 위로 마우스를 이동하세요.

날씨 관측과 예보를 보려면 클릭하세요.

지도 변경 : 확대하려면 엑스 표시가 있는 녹색 버튼, 축소하려면 빼기 표시가 있는 녹색 버튼, 다음 페이지의 지도를 보려면 녹색 화살표를 클릭하세요.


METAR-TAF: